Time;durP1;ratioP1;P1;durP2;ratioP2;P2;SDS_P1;SDS_P2;PMS_P1;PMS_P2;Temp;Humidity;BMP_temperature;BMP_pressure;BME280_temperature;BME280_humidity;BME280_pressure;Samples;Min_cycle;Max_cycle;Signal;HPM_P1;HPM_P2
2023/08/02 00:00:43;;;;;;;5.40;1.38;;;;;;;15.13;100.00;100014.78;4942110;29;20091;-79
2023/08/02 00:03:10;;;;;;;5.03;1.75;;;;;;;15.10;100.00;100012.19;4925569;28;20551;-79
2023/08/02 00:05:38;;;;;;;3.33;1.80;;;;;;;15.10;100.00;100014.84;4933025;28;20144;-80
2023/08/02 00:08:06;;;;;;;5.05;1.35;;;;;;;15.09;100.00;100009.63;4953698;28;20505;-80
2023/08/02 00:10:36;;;;;;;2.22;1.73;;;;;;;15.09;100.00;100009.63;4917250;28;20050;-79
2023/08/02 00:13:04;;;;;;;4.90;1.55;;;;;;;15.07;100.00;100014.97;4939788;29;20074;-78
2023/08/02 00:15:31;;;;;;;2.92;1.40;;;;;;;15.06;100.00;100005.25;4928223;28;20066;-79
2023/08/02 00:17:59;;;;;;;6.88;2.13;;;;;;;15.04;100.00;100000.91;4937441;28;20031;-79
2023/08/02 00:20:27;;;;;;;4.90;1.50;;;;;;;15.04;100.00;100011.53;4943039;28;20059;-79
2023/08/02 00:22:54;;;;;;;6.88;1.70;;;;;;;15.04;100.00;100001.78;4941658;28;20098;-79
2023/08/02 00:25:22;;;;;;;2.35;1.55;;;;;;;15.04;100.00;100006.22;4934246;28;20054;-80
2023/08/02 00:27:50;;;;;;;4.15;1.50;;;;;;;15.07;100.00;99995.53;4951966;28;20054;-79
2023/08/02 00:30:18;;;;;;;4.93;1.52;;;;;;;15.07;100.00;99992.88;4960721;28;20468;-79
2023/08/02 00:32:47;;;;;;;8.82;1.45;;;;;;;15.07;100.00;99996.38;4942886;28;20493;-80
2023/08/02 00:35:15;;;;;;;3.75;1.73;;;;;;;15.09;100.00;99989.25;4947120;28;20842;-79
2023/08/02 00:37:45;;;;;;;5.03;1.40;;;;;;;15.10;100.00;99990.09;4947466;28;20057;-79
2023/08/02 00:40:15;;;;;;;4.72;1.40;;;;;;;15.10;100.00;99998.94;4943542;28;20047;-79
2023/08/02 00:42:43;;;;;;;2.63;1.60;;;;;;;15.09;100.00;99993.69;4937487;28;20043;-79
2023/08/02 00:45:12;;;;;;;4.65;1.60;;;;;;;15.10;100.00;100000.72;4928634;29;20058;-79
2023/08/02 00:47:40;;;;;;;9.73;2.45;;;;;;;15.10;100.00;100003.38;4929207;28;20517;-79
2023/08/02 00:50:09;;;;;;;2.38;1.40;;;;;;;15.09;100.00;99994.56;4943773;28;20046;-79
2023/08/02 00:52:38;;;;;;;4.20;1.50;;;;;;;15.11;100.00;99994.53;4930997;29;20059;-79
2023/08/02 00:55:07;;;;;;;3.15;1.65;;;;;;;15.11;100.00;99990.06;4957501;28;20071;-79
2023/08/02 00:57:37;;;;;;;4.00;1.73;;;;;;;15.10;100.00;100001.59;4932420;28;20055;-79
2023/08/02 01:00:05;;;;;;;3.42;1.75;;;;;;;15.10;100.00;99993.63;4964447;28;20606;-79
2023/08/02 01:02:34;;;;;;;5.97;1.92;;;;;;;15.10;100.00;99998.06;4974117;28;20044;-80
2023/08/02 01:05:03;;;;;;;3.08;1.60;;;;;;;15.09;100.00;99993.69;4943219;28;20058;-79
2023/08/02 01:07:57;;;;;;;4.00;1.50;;;;;;;15.10;100.00;99998.06;4939312;28;20055;-79
2023/08/02 01:10:44;;;;;;;2.45;1.50;;;;;;;15.11;100.00;99995.38;4949183;28;20043;-78
2023/08/02 01:13:16;;;;;;;2.45;1.42;;;;;;;15.13;100.00;99990.91;4914086;28;20054;-80
2023/08/02 01:15:45;;;;;;;3.63;1.60;;;;;;;15.16;100.00;99990.81;4962269;28;20535;-79
2023/08/02 01:18:13;;;;;;;3.80;1.88;;;;;;;15.17;100.00;99978.41;4951006;29;20054;-79
2023/08/02 01:20:41;;;;;;;4.20;1.67;;;;;;;15.18;100.00;99978.38;4935812;28;20050;-78
2023/08/02 01:23:09;;;;;;;4.07;2.00;;;;;;;15.19;100.00;99987.19;4936452;28;20046;-78
2023/08/02 01:25:38;;;;;;;4.35;2.20;;;;;;;15.19;100.00;99985.41;4954386;28;20054;-78
2023/08/02 01:28:15;;;;;;;2.28;1.60;;;;;;;15.20;100.00;99989.81;4922051;28;20074;-79
2023/08/02 01:30:45;;;;;;;3.90;2.00;;;;;;;15.21;100.00;99972.94;4948588;28;20078;-79
2023/08/02 01:33:15;;;;;;;3.33;1.85;;;;;;;15.21;100.00;99972.94;4927725;28;20059;-79
2023/08/02 01:35:43;;;;;;;6.13;1.63;;;;;;;15.23;100.00;99966.75;4941528;28;20054;-80
2023/08/02 01:38:11;;;;;;;6.20;2.55;;;;;;;15.23;100.00;99974.72;4925576;29;20074;-79
2023/08/02 01:40:41;;;;;;;4.13;1.60;;;;;;;15.22;100.00;99973.84;4934456;29;20043;-79
2023/08/02 01:43:09;;;;;;;4.45;2.10;;;;;;;15.23;100.00;99964.09;4924853;28;20059;-79
2023/08/02 01:45:37;;;;;;;3.78;1.90;;;;;;;15.23;100.00;99972.06;4964609;28;20039;-80
2023/08/02 01:48:04;;;;;;;5.07;2.28;;;;;;;15.25;100.00;99956.94;4921479;29;20398;-80
2023/08/02 01:50:32;;;;;;;3.97;2.03;;;;;;;15.25;100.00;99948.97;4970684;28;20052;-80
2023/08/02 01:52:59;;;;;;;6.45;2.25;;;;;;;15.26;100.00;99951.59;4956200;28;20382;-79
2023/08/02 01:55:27;;;;;;;7.70;1.80;;;;;;;15.26;100.00;99953.41;4925152;28;20050;-80
2023/08/02 01:57:54;;;;;;;7.78;2.60;;;;;;;15.26;100.00;99953.41;4918081;28;20516;-80
2023/08/02 02:00:27;;;;;;;6.00;2.10;;;;;;;15.23;100.00;99956.13;4943525;28;20590;-80
2023/08/02 02:02:57;;;;;;;5.28;2.85;;;;;;;15.21;100.00;99946.41;4943667;28;20044;-80
2023/08/02 02:05:24;;;;;;;8.25;2.50;;;;;;;15.21;100.00;99940.25;4949902;28;20408;-79
2023/08/02 02:07:52;;;;;;;3.38;2.70;;;;;;;15.22;100.00;99939.34;4944170;28;20678;-80
2023/08/02 02:10:20;;;;;;;7.50;2.53;;;;;;;15.23;100.00;99937.56;4942096;28;20055;-80
2023/08/02 02:12:47;;;;;;;4.60;2.55;;;;;;;15.23;100.00;99934.91;4919250;28;20517;-79
2023/08/02 02:15:14;;;;;;;4.70;2.45;;;;;;;15.25;100.00;99935.72;4954026;28;20047;-78
2023/08/02 02:17:43;;;;;;;5.93;2.80;;;;;;;15.23;100.00;99927.78;4917013;28;20051;-80
2023/08/02 02:20:11;;;;;;;7.75;3.00;;;;;;;15.24;100.00;99926.03;4958253;28;20519;-79
2023/08/02 02:22:39;;;;;;;2.65;2.42;;;;;;;15.22;100.00;99931.38;4943759;28;20047;-79
2023/08/02 02:25:08;;;;;;;8.68;3.05;;;;;;;15.21;100.00;99921.66;4946094;28;20051;-79
2023/08/02 02:27:36;;;;;;;6.50;2.90;;;;;;;15.20;100.00;99926.13;4958952;28;20991;-80
2023/08/02 02:30:05;;;;;;;7.78;2.75;;;;;;;15.20;100.00;99920.81;4953597;28;20058;-79
2023/08/02 02:32:33;;;;;;;6.53;3.10;;;;;;;15.19;100.00;99915.53;4951992;29;20036;-79
2023/08/02 02:35:01;;;;;;;5.15;2.88;;;;;;;15.20;100.00;99907.53;4929145;29;20527;-80
2023/08/02 02:37:29;;;;;;;5.38;3.47;;;;;;;15.20;100.00;99906.69;4922160;28;20056;-78
2023/08/02 02:39:58;;;;;;;6.60;3.00;;;;;;;15.20;100.00;99896.91;4948418;28;20093;-79
2023/08/02 02:42:25;;;;;;;8.13;3.58;;;;;;;15.21;100.00;99898.63;4947455;28;20175;-80
2023/08/02 02:44:54;;;;;;;8.60;3.53;;;;;;;15.20;100.00;99901.38;4908742;28;20056;-79
2023/08/02 02:47:21;;;;;;;4.13;3.10;;;;;;;15.20;100.00;99896.06;4951870;28;20514;-79
2023/08/02 02:49:49;;;;;;;6.78;3.00;;;;;;;15.21;100.00;99898.63;4949008;28;20501;-80
2023/08/02 02:52:16;;;;;;;5.95;3.20;;;;;;;15.20;100.00;99894.28;4937190;28;20055;-78
2023/08/02 02:54:44;;;;;;;8.45;3.58;;;;;;;15.20;100.00;99893.41;4929076;28;20051;-80
2023/08/02 02:57:11;;;;;;;13.50;3.97;;;;;;;15.19;100.00;99887.22;4937045;28;20062;-80
2023/08/02 02:59:38;;;;;;;7.25;3.97;;;;;;;15.18;100.00;99882.84;4921219;28;20055;-79
2023/08/02 03:02:06;;;;;;;4.15;3.60;;;;;;;15.19;100.00;99881.91;4965221;28;20039;-79
2023/08/02 03:04:33;;;;;;;7.85;3.30;;;;;;;15.19;100.00;99871.28;4939232;28;20051;-79
2023/08/02 03:07:01;;;;;;;5.93;3.40;;;;;;;15.19;100.00;99867.78;4969601;28;20575;-79
2023/08/02 03:09:29;;;;;;;8.98;4.55;;;;;;;15.18;100.00;99860.75;4983549;28;20039;-80
2023/08/02 03:11:56;;;;;;;5.50;3.60;;;;;;;15.17;100.00;99854.53;4977125;28;20501;-79
2023/08/02 03:14:23;;;;;;;9.73;3.65;;;;;;;15.17;100.00;99849.25;4982911;28;20054;-80
2023/08/02 03:16:51;;;;;;;6.80;3.60;;;;;;;15.17;100.00;99841.28;4921271;28;20058;-79
2023/08/02 03:19:18;;;;;;;8.57;3.80;;;;;;;15.16;100.00;99843.97;4961325;28;20047;-79
2023/08/02 03:21:45;;;;;;;7.68;4.00;;;;;;;15.16;100.00;99851.94;4982075;28;20052;-79
2023/08/02 03:24:13;;;;;;;9.13;3.63;;;;;;;15.16;100.00;99846.63;4948327;28;20040;-79
2023/08/02 03:26:43;;;;;;;7.65;4.18;;;;;;;15.15;100.00;99845.78;4935396;28;20043;-79
2023/08/02 03:29:11;;;;;;;5.45;3.78;;;;;;;15.15;100.00;99843.13;4951328;28;20492;-79
2023/08/02 03:31:38;;;;;;;7.15;3.45;;;;;;;15.15;100.00;99836.94;4902349;28;20062;-79
2023/08/02 03:34:05;;;;;;;7.22;3.55;;;;;;;15.13;100.00;99837.00;4949949;29;20098;-80
2023/08/02 03:36:33;;;;;;;13.93;4.05;;;;;;;15.12;100.00;99824.66;4941575;28;20047;-79
2023/08/02 03:39:01;;;;;;;9.18;4.47;;;;;;;15.12;100.00;99829.97;4953855;28;20052;-79
2023/08/02 03:41:28;;;;;;;6.63;4.03;;;;;;;15.11;100.00;99825.56;4950712;28;20047;-79
2023/08/02 03:43:56;;;;;;;8.60;4.15;;;;;;;15.10;100.00;99815.84;4928707;29;20409;-79
2023/08/02 03:46:23;;;;;;;9.85;3.97;;;;;;;15.10;100.00;99813.19;4944807;28;20059;-79
2023/08/02 03:48:50;;;;;;;6.60;3.63;;;;;;;15.11;100.00;99811.44;4911294;29;20051;-80
2023/08/02 03:51:18;;;;;;;4.85;3.90;;;;;;;15.11;100.00;99814.09;4919754;28;20055;-79
2023/08/02 03:53:46;;;;;;;11.20;3.90;;;;;;;15.11;100.00;99814.09;4949091;28;20047;-78
2023/08/02 03:56:13;;;;;;;8.30;3.88;;;;;;;15.10;100.00;99801.72;4935152;28;20055;-78
2023/08/02 03:58:41;;;;;;;7.05;3.78;;;;;;;15.10;100.00;99807.03;4925007;29;20058;-80
2023/08/02 04:01:08;;;;;;;6.38;3.92;;;;;;;15.09;100.00;99792.91;4930756;28;20105;-80
2023/08/02 04:03:36;;;;;;;10.38;3.92;;;;;;;15.09;100.00;99790.25;4934751;28;20035;-79
2023/08/02 04:06:04;;;;;;;8.18;4.68;;;;;;;15.09;100.00;99784.09;4979703;28;20066;-79
2023/08/02 04:08:31;;;;;;;9.85;4.07;;;;;;;15.10;100.00;99788.47;4930283;28;20058;-78
2023/08/02 04:11:04;;;;;;;12.98;7.63;;;;;;;15.09;100.00;99782.28;4932940;28;20043;-79
2023/08/02 04:13:32;;;;;;;12.30;6.68;;;;;;;15.10;100.00;99789.31;4933319;28;20839;-79
2023/08/02 04:16:01;;;;;;;14.68;5.50;;;;;;;15.12;100.00;99786.63;4950916;28;20055;-80
2023/08/02 04:18:28;;;;;;;16.10;4.53;;;;;;;15.13;100.00;99775.09;4910764;28;20504;-80
2023/08/02 04:20:59;;;;;;;12.18;4.13;;;;;;;15.14;100.00;99774.16;4952332;29;20748;-81
2023/08/02 04:23:27;;;;;;;13.77;4.15;;;;;;;15.14;100.00;99779.47;4941821;28;20054;-81
2023/08/02 04:26:09;;;;;;;11.95;4.55;;;;;;;15.14;100.00;99775.06;4963295;28;20058;-79
2023/08/02 04:28:37;;;;;;;13.15;4.18;;;;;;;15.14;100.00;99780.38;4944002;28;20050;-79
2023/08/02 04:31:04;;;;;;;11.73;4.90;;;;;;;15.15;100.00;99779.44;4942101;28;20055;-79
2023/08/02 04:33:32;;;;;;;12.25;5.40;;;;;;;15.14;100.00;99785.69;4919839;28;21193;-79
2023/08/02 04:36:00;;;;;;;10.43;4.05;;;;;;;15.14;100.00;99788.31;4924065;29;20424;-81
2023/08/02 04:38:27;;;;;;;14.35;5.13;;;;;;;15.16;100.00;99770.56;4943833;28;24017;-79
2023/08/02 04:40:56;;;;;;;15.77;6.10;;;;;;;15.18;100.00;99762.56;4951529;28;20105;-80
2023/08/02 04:43:24;;;;;;;11.23;5.50;;;;;;;15.18;100.00;99755.47;4951487;28;20050;-80
2023/08/02 04:45:51;;;;;;;16.67;6.00;;;;;;;15.19;100.00;99764.28;4942245;28;20051;-79
2023/08/02 04:48:18;;;;;;;11.50;5.05;;;;;;;15.20;100.00;99753.63;4980375;28;20050;-79
2023/08/02 04:50:46;;;;;;;11.90;4.72;;;;;;;15.19;100.00;99751.88;4918026;28;20055;-80
2023/08/02 04:53:14;;;;;;;12.38;5.00;;;;;;;15.20;100.00;99752.75;4938227;28;20426;-79
2023/08/02 04:55:43;;;;;;;15.90;5.22;;;;;;;15.18;100.00;99750.16;4948078;28;20140;-80
2023/08/02 04:58:10;;;;;;;18.88;5.43;;;;;;;15.19;100.00;99748.34;4950239;28;20054;-79
2023/08/02 05:00:39;;;;;;;14.88;5.25;;;;;;;15.20;100.00;99742.16;4944202;28;20043;-79
2023/08/02 05:03:06;;;;;;;14.88;5.30;;;;;;;15.22;100.00;99742.97;4950046;28;20051;-79
2023/08/02 05:05:34;;;;;;;17.52;5.88;;;;;;;15.21;100.00;99744.72;4915667;28;25452;-79
2023/08/02 05:08:02;;;;;;;17.08;5.32;;;;;;;15.23;100.00;99726.09;4972121;28;20075;-79
2023/08/02 05:10:31;;;;;;;14.23;5.78;;;;;;;15.24;100.00;99724.34;4915793;29;20047;-79
2023/08/02 05:12:59;;;;;;;15.90;5.90;;;;;;;15.24;100.00;99737.59;4936399;29;20524;-79
2023/08/02 05:15:26;;;;;;;16.50;5.72;;;;;;;15.25;100.00;99721.59;4972577;28;20056;-80
2023/08/02 05:17:54;;;;;;;12.48;5.40;;;;;;;15.26;100.00;99703.91;4936828;29;20062;-79
2023/08/02 05:20:21;;;;;;;17.45;6.20;;;;;;;15.25;100.00;99703.03;4966347;28;20066;-79
2023/08/02 05:22:50;;;;;;;14.82;5.82;;;;;;;15.26;100.00;99703.91;4941861;28;20046;-80
2023/08/02 05:25:18;;;;;;;13.10;6.68;;;;;;;15.26;100.00;99710.09;4942278;28;20305;-79
2023/08/02 05:27:46;;;;;;;13.32;5.55;;;;;;;15.27;100.00;99710.94;4936962;29;20070;-80
2023/08/02 05:30:13;;;;;;;15.90;5.72;;;;;;;15.27;100.00;99705.63;4939837;28;20051;-79
2023/08/02 05:32:43;;;;;;;16.75;7.07;;;;;;;15.29;100.00;99709.09;4967459;28;20055;-80
2023/08/02 05:35:10;;;;;;;19.43;7.00;;;;;;;15.30;100.00;99710.84;4940326;28;20055;-79
2023/08/02 05:37:38;;;;;;;15.60;6.40;;;;;;;15.30;100.00;99700.22;4932889;28;20298;-79
2023/08/02 05:40:06;;;;;;;10.98;5.78;;;;;;;15.31;100.00;99694.00;4916072;28;20505;-80
2023/08/02 05:42:34;;;;;;;14.82;5.80;;;;;;;15.35;100.00;99685.03;4957422;28;20056;-80
2023/08/02 05:45:02;;;;;;;11.02;5.88;;;;;;;15.37;100.00;99691.16;4943986;29;20043;-81
2023/08/02 05:47:30;;;;;;;16.73;5.63;;;;;;;15.40;100.00;99677.75;4957330;28;20501;-81
2023/08/02 05:49:58;;;;;;;12.82;5.63;;;;;;;15.43;100.00;99667.03;4955663;28;20047;-84
2023/08/02 05:52:26;;;;;;;8.85;5.68;;;;;;;15.46;100.00;99660.72;4925758;28;20513;-82
2023/08/02 05:54:53;;;;;;;15.32;6.63;;;;;;;15.58;100.00;99657.66;4955885;29;20054;-82
2023/08/02 05:57:21;;;;;;;14.93;5.63;;;;;;;15.82;100.00;99644.41;4917838;28;20059;-83
2023/08/02 05:59:49;;;;;;;14.63;5.72;;;;;;;15.94;100.00;99633.31;4947424;28;20058;-82
2023/08/02 06:02:16;;;;;;;11.52;5.60;;;;;;;16.03;100.00;99627.66;4945094;28;20051;-82
2023/08/02 06:04:45;;;;;;;16.35;5.60;;;;;;;16.09;100.00;99623.91;4938154;28;20488;-83
2023/08/02 06:07:12;;;;;;;10.93;5.13;;;;;;;16.12;100.00;99632.63;4937696;28;20055;-82
2023/08/02 06:09:41;;;;;;;12.63;5.13;;;;;;;16.16;100.00;99642.22;4944994;28;20079;-81
2023/08/02 06:12:09;;;;;;;11.07;5.18;;;;;;;16.21;100.00;99631.38;4916835;28;20054;-81
2023/08/02 06:14:36;;;;;;;9.30;4.85;;;;;;;16.25;100.00;99622.34;4924205;28;20070;-81
2023/08/02 06:17:06;;;;;;;12.75;5.78;;;;;;;16.33;100.00;99624.69;4924744;28;20078;-81
2023/08/02 06:19:33;;;;;;;10.43;4.97;;;;;;;16.37;100.00;99621.03;4936048;29;20505;-81
2023/08/02 06:22:00;;;;;;;16.45;7.07;;;;;;;16.38;100.00;99607.63;4927038;29;20047;-81
2023/08/02 06:24:28;;;;;;;8.45;5.22;;;;;;;16.38;100.00;99601.47;4920983;28;20047;-81
2023/08/02 06:26:55;;;;;;;13.52;6.18;;;;;;;16.38;100.00;99607.63;4952412;28;20055;-81
2023/08/02 06:29:23;;;;;;;13.27;4.80;;;;;;;16.36;100.00;99606.84;4931748;28;20055;-81
2023/08/02 06:31:51;;;;;;;9.00;4.65;;;;;;;16.41;100.00;99606.66;4946130;28;20047;-80
2023/08/02 06:34:18;;;;;;;14.02;5.57;;;;;;;16.45;100.00;99602.09;4936912;28;20044;-81
2023/08/02 06:36:46;;;;;;;16.52;5.20;;;;;;;16.48;100.00;99607.28;4947998;28;20579;-81
2023/08/02 06:39:13;;;;;;;11.30;5.25;;;;;;;16.52;100.00;99603.56;4941038;28;20084;-80
2023/08/02 06:41:40;;;;;;;12.57;4.80;;;;;;;16.54;100.00;99602.59;4940803;29;20051;-80
2023/08/02 06:44:08;;;;;;;10.10;4.90;;;;;;;16.56;100.00;99598.06;4936786;28;20043;-80
2023/08/02 06:46:36;;;;;;;11.00;4.68;;;;;;;16.60;100.00;99596.16;4933995;29;20412;-83
2023/08/02 06:49:03;;;;;;;11.18;5.90;;;;;;;16.60;100.00;99588.16;4924548;28;20066;-80
2023/08/02 06:51:31;;;;;;;13.07;5.88;;;;;;;16.65;100.00;99588.81;4949190;28;20054;-81
2023/08/02 06:53:58;;;;;;;15.40;5.97;;;;;;;16.63;100.00;99587.16;4929915;29;20051;-80
2023/08/02 06:56:26;;;;;;;7.55;5.00;;;;;;;16.61;100.00;99571.25;4912662;29;20070;-81
2023/08/02 06:58:53;;;;;;;7.85;5.80;;;;;;;16.64;100.00;99573.81;4930722;28;20051;-80
2023/08/02 07:01:22;;;;;;;9.45;5.40;;;;;;;16.65;100.00;99582.63;4957829;28;20072;-81
2023/08/02 07:03:50;;;;;;;10.90;5.75;;;;;;;16.66;100.00;99566.63;4958125;28;20084;-81
2023/08/02 07:06:21;;;;;;;16.05;7.20;;;;;;;16.62;100.00;99562.38;4948215;28;20047;-81
2023/08/02 07:08:49;;;;;;;13.82;6.13;;;;;;;16.61;100.00;99559.78;4943692;28;20065;-81
2023/08/02 07:11:17;;;;;;;12.88;6.53;;;;;;;16.65;100.00;99556.03;4929374;28;20051;-81
2023/08/02 07:13:56;;;;;;;11.52;5.95;;;;;;;16.68;100.00;99550.59;4926560;28;20066;-81
2023/08/02 07:16:24;;;;;;;8.68;5.78;;;;;;;16.72;100.00;99553.06;4938143;29;20504;-81
2023/08/02 07:18:51;;;;;;;6.25;5.38;;;;;;;16.72;100.00;99553.06;4938737;29;20421;-81
2023/08/02 07:21:19;;;;;;;10.15;5.32;;;;;;;16.75;100.00;99555.59;4930386;28;20059;-82
2023/08/02 07:23:47;;;;;;;13.32;5.32;;;;;;;16.82;100.00;99565.97;4920639;28;20050;-82
2023/08/02 07:26:14;;;;;;;7.13;4.70;;;;;;;16.85;100.00;99552.56;4933223;28;20511;-81
2023/08/02 07:28:41;;;;;;;8.73;4.78;;;;;;;16.91;100.00;99550.50;4938750;28;20509;-81
2023/08/02 07:31:13;;;;;;;8.48;4.93;;;;;;;16.99;100.00;99546.63;4954158;28;20048;-81
2023/08/02 07:33:41;;;;;;;11.02;5.82;;;;;;;17.03;100.00;99534.91;4951285;28;20058;-81
2023/08/02 07:36:18;;;;;;;6.57;4.35;;;;;;;17.03;100.00;99538.47;4951403;28;20044;-82
2023/08/02 07:38:46;;;;;;;9.43;5.18;;;;;;;16.99;100.00;99528.88;4950897;28;20082;-80
2023/08/02 07:41:14;;;;;;;13.50;5.85;;;;;;;16.98;100.00;99524.50;4953117;28;20066;-81
2023/08/02 07:43:42;;;;;;;9.82;4.68;;;;;;;16.93;100.00;99523.81;4945149;28;20051;-80
2023/08/02 07:46:20;;;;;;;7.97;4.97;;;;;;;16.90;100.00;99523.94;4946865;28;20035;-81
2023/08/02 07:48:51;;;;;;;13.55;4.80;;;;;;;16.90;100.00;99513.31;4946813;29;20043;-81
2023/08/02 07:51:20;;;;;;;9.93;5.22;;;;;;;16.88;100.00;99507.19;4963559;28;20059;-81
2023/08/02 07:53:48;;;;;;;7.63;4.65;;;;;;;16.83;100.00;99510.06;4939126;29;20066;-81
2023/08/02 07:56:16;;;;;;;9.75;5.35;;;;;;;16.81;100.00;99498.59;4946872;28;20477;-81
2023/08/02 07:58:43;;;;;;;8.27;5.47;;;;;;;16.82;100.00;99496.78;4926336;28;20047;-83
2023/08/02 08:01:10;;;;;;;8.38;4.38;;;;;;;16.80;100.00;99496.00;4945734;28;20054;-81
2023/08/02 08:03:38;;;;;;;9.77;4.43;;;;;;;16.81;100.00;99479.97;4952378;28;20075;-82
2023/08/02 08:06:11;;;;;;;9.98;4.97;;;;;;;16.82;100.00;99478.19;4945642;28;20055;-81
2023/08/02 08:08:40;;;;;;;10.52;4.30;;;;;;;16.80;100.00;99482.69;4939414;29;20047;-82
2023/08/02 08:11:07;;;;;;;8.75;3.40;;;;;;;16.76;100.00;99474.84;4947236;28;20050;-81
2023/08/02 08:13:35;;;;;;;10.93;4.32;;;;;;;16.74;100.00;99471.38;4933238;28;20487;-83
2023/08/02 08:16:02;;;;;;;8.32;3.90;;;;;;;16.75;100.00;99462.50;4937076;28;20548;-81
2023/08/02 08:18:32;;;;;;;10.15;4.30;;;;;;;16.73;100.00;99476.81;4947180;28;20419;-82
2023/08/02 08:21:04;;;;;;;10.27;4.18;;;;;;;16.73;100.00;99468.81;4953340;28;20047;-80
2023/08/02 08:23:32;;;;;;;10.15;4.03;;;;;;;16.69;100.00;99452.13;4945322;28;20159;-80
2023/08/02 08:26:00;;;;;;;10.05;3.60;;;;;;;16.70;100.00;99437.03;4956055;28;20444;-80
2023/08/02 08:28:28;;;;;;;6.60;3.40;;;;;;;16.68;100.00;99417.63;4929476;28;20684;-80
2023/08/02 08:31:03;;;;;;;6.28;3.53;;;;;;;16.67;100.00;99414.09;4936264;28;20140;-80
2023/08/02 08:33:31;;;;;;;8.20;3.85;;;;;;;16.66;100.00;99404.38;4974674;28;20043;-80
2023/08/02 08:35:59;;;;;;;10.15;3.90;;;;;;;16.68;100.00;99399.84;4950144;28;20485;-79
2023/08/02 08:38:26;;;;;;;10.13;3.03;;;;;;;16.70;100.00;99399.78;4942635;28;20047;-81
2023/08/02 08:40:56;;;;;;;7.97;2.95;;;;;;;16.72;100.00;99389.94;4945277;28;20051;-80
2023/08/02 08:43:26;;;;;;;4.68;2.83;;;;;;;16.71;100.00;99390.88;4920464;28;20062;-79
2023/08/02 08:45:56;;;;;;;7.20;3.73;;;;;;;16.69;100.00;99382.97;4969391;28;20055;-80
2023/08/02 08:48:26;;;;;;;6.93;3.28;;;;;;;16.67;100.00;99382.19;4961379;28;20801;-80
2023/08/02 08:50:56;;;;;;;7.20;3.08;;;;;;;16.65;100.00;99372.53;4961099;28;20055;-81
2023/08/02 08:53:31;;;;;;;6.47;3.45;;;;;;;16.62;100.00;99368.22;4945175;28;20570;-81
2023/08/02 08:56:00;;;;;;;6.25;3.20;;;;;;;16.54;100.00;99373.91;4948980;28;20047;-80
2023/08/02 08:58:28;;;;;;;6.78;3.33;;;;;;;16.47;100.00;99364.47;4958253;28;20058;-81
2023/08/02 09:00:58;;;;;;;8.90;3.38;;;;;;;16.46;100.00;99368.03;4920109;28;20055;-80
2023/08/02 09:03:25;;;;;;;6.80;3.05;;;;;;;16.42;100.00;99360.28;4938679;28;20058;-80
2023/08/02 09:05:56;;;;;;;10.63;4.07;;;;;;;16.38;100.00;99346.25;4950606;28;20047;-80
2023/08/02 09:08:24;;;;;;;11.55;4.55;;;;;;;16.33;100.00;99338.50;4939752;28;20066;-80
2023/08/02 09:10:52;;;;;;;6.85;3.72;;;;;;;16.22;100.00;99326.59;4931490;29;20062;-80
2023/08/02 09:13:25;;;;;;;6.57;3.83;;;;;;;16.19;100.00;99332.91;4959005;28;20054;-80
2023/08/02 09:16:15;;;;;;;9.23;4.28;;;;;;;16.13;100.00;99311.94;4911547;28;20066;-79
2023/08/02 09:18:47;;;;;;;8.90;4.70;;;;;;;16.10;100.00;99314.72;4941551;28;20039;-80
2023/08/02 09:21:20;;;;;;;10.15;3.88;;;;;;;16.05;100.00;99320.25;4966388;28;20062;-81
2023/08/02 09:23:56;;;;;;;14.68;4.70;;;;;;;16.02;100.00;99322.16;4948717;28;20047;-80
2023/08/02 09:26:24;;;;;;;11.35;4.50;;;;;;;15.95;100.00;99317.13;4928717;28;20039;-81
2023/08/02 09:28:59;;;;;;;8.82;4.40;;;;;;;15.82;100.00;99310.59;4928090;29;20051;-80
2023/08/02 09:31:28;;;;;;;15.23;4.60;;;;;;;15.76;100.00;99324.13;4904700;28;20063;-81
2023/08/02 09:33:56;;;;;;;9.57;4.28;;;;;;;15.74;100.00;99331.31;4930681;28;20043;-81
2023/08/02 09:36:29;;;;;;;7.20;4.50;;;;;;;15.68;100.00;99320.91;4966588;28;20047;-81
2023/08/02 09:39:09;;;;;;;6.50;3.47;;;;;;;15.62;100.00;99322.03;4933868;29;20051;-80
2023/08/02 09:41:37;;;;;;;7.95;4.22;;;;;;;15.60;100.00;99316.78;4943472;29;20050;-80
2023/08/02 09:44:08;;;;;;;8.07;4.10;;;;;;;15.52;100.00;99303.00;4949859;28;20058;-80
2023/08/02 09:46:36;;;;;;;8.95;4.07;;;;;;;15.53;100.00;99299.38;4922057;28;20052;-79
2023/08/02 09:49:18;;;;;;;9.57;4.20;;;;;;;15.57;100.00;99311.59;4941500;28;20854;-81
2023/08/02 09:51:45;;;;;;;7.35;3.80;;;;;;;15.60;100.00;99303.53;4939271;28;20056;-79
2023/08/02 09:54:14;;;;;;;8.48;4.32;;;;;;;15.60;100.00;99297.34;4935690;29;20056;-81
2023/08/02 09:56:43;;;;;;;9.93;5.13;;;;;;;15.61;100.00;99296.41;4943360;28;20047;-81
2023/08/02 09:59:11;;;;;;;7.45;4.70;;;;;;;15.60;100.00;99284.94;4940425;28;20054;-80
2023/08/02 10:01:40;;;;;;;9.15;4.90;;;;;;;15.61;100.00;99280.47;4905020;29;20050;-80
2023/08/02 10:04:10;;;;;;;8.60;4.43;;;;;;;15.62;100.00;99273.41;4944269;28;20054;-79
2023/08/02 10:07:08;;;;;;;5.82;4.10;;;;;;;15.64;100.00;99266.22;4975241;28;20047;-81
2023/08/02 10:09:37;;;;;;;11.07;5.07;;;;;;;15.60;100.00;99263.69;4959584;28;20432;-80
2023/08/02 10:12:13;;;;;;;10.73;4.70;;;;;;;15.60;100.00;99263.69;4941318;28;20501;-81
2023/08/02 10:14:41;;;;;;;11.70;5.28;;;;;;;15.65;100.00;99254.66;4951382;28;20062;-81
2023/08/02 10:17:09;;;;;;;9.70;5.20;;;;;;;15.71;100.00;99247.31;4907080;28;20044;-80
2023/08/02 10:19:37;;;;;;;6.80;5.07;;;;;;;15.80;100.00;99238.09;4949982;28;20054;-79
2023/08/02 10:22:06;;;;;;;11.77;5.30;;;;;;;15.88;100.00;99237.75;4941221;28;20062;-83
2023/08/02 10:24:34;;;;;;;5.95;5.03;;;;;;;15.96;100.00;99233.84;4947694;28;20050;-82
2023/08/02 10:27:05;;;;;;;12.13;5.97;;;;;;;15.98;100.00;99231.97;4932183;28;20046;-82
2023/08/02 10:29:34;;;;;;;5.88;4.68;;;;;;;15.95;100.00;99224.16;4942957;28;20063;-82
2023/08/02 10:32:17;;;;;;;8.33;4.93;;;;;;;15.89;100.00;99207.63;4907094;28;20055;-81
2023/08/02 10:34:50;;;;;;;9.63;4.85;;;;;;;15.85;100.00;99193.59;4977896;28;20302;-81
2023/08/02 10:37:20;;;;;;;9.27;5.22;;;;;;;15.83;100.00;99198.13;4968464;28;20043;-81
2023/08/02 10:39:47;;;;;;;10.57;5.55;;;;;;;15.84;100.00;99178.63;4938833;29;20052;-81
2023/08/02 10:42:17;;;;;;;9.18;5.40;;;;;;;15.81;100.00;99169.91;4949472;28;20066;-82
2023/08/02 10:44:54;;;;;;;8.50;5.15;;;;;;;15.79;100.00;99167.31;4966040;28;20051;-80
2023/08/02 10:47:30;;;;;;;10.55;6.13;;;;;;;15.76;100.00;99168.34;4964170;28;20043;-82
2023/08/02 10:49:59;;;;;;;9.57;5.50;;;;;;;15.80;100.00;99174.34;4957535;28;20066;-79
2023/08/02 10:52:38;;;;;;;7.43;4.90;;;;;;;15.83;100.00;99168.06;4952241;28;20047;-84
2023/08/02 10:55:25;;;;;;;13.55;5.13;;;;;;;15.86;100.00;99162.59;4955336;28;20055;-82
2023/08/02 10:57:55;;;;;;;8.70;5.32;;;;;;;15.85;100.00;99160.88;4949768;28;20054;-83
2023/08/02 11:00:26;;;;;;;12.43;5.90;;;;;;;15.87;100.00;99149.25;4966535;28;20031;-82
2023/08/02 11:02:53;;;;;;;7.60;5.07;;;;;;;15.85;100.00;99140.47;4942509;28;20073;-82
2023/08/02 11:05:45;;;;;;;8.65;5.43;;;;;;;15.88;100.00;99124.41;4933662;28;20051;-82
2023/08/02 11:08:13;;;;;;;8.90;5.80;;;;;;;15.92;100.00;99120.69;4934482;29;20038;-81
2023/08/02 11:10:52;;;;;;;8.27;5.28;;;;;;;15.98;100.00;99108.91;4937164;29;20061;-81
2023/08/02 11:13:37;;;;;;;8.10;4.90;;;;;;;15.97;100.00;99118.69;4953310;28;20058;-82
2023/08/02 11:16:04;;;;;;;10.70;4.70;;;;;;;15.96;100.00;99103.66;4987396;28;20058;-82
2023/08/02 11:18:33;;;;;;;6.55;4.40;;;;;;;16.00;100.00;99100.88;4950954;28;20051;-82
2023/08/02 11:21:12;;;;;;;6.00;3.90;;;;;;;16.02;100.00;99091.03;4930006;28;20064;-83
2023/08/02 11:23:41;;;;;;;6.65;4.30;;;;;;;16.05;100.00;99088.22;4960521;28;20047;-81
2023/08/02 11:26:13;;;;;;;5.60;3.58;;;;;;;16.10;100.00;99081.75;4956813;28;20051;-82
2023/08/02 11:28:45;;;;;;;5.18;3.80;;;;;;;16.12;100.00;99079.03;4951832;29;20051;-82
2023/08/02 11:31:12;;;;;;;7.80;3.60;;;;;;;16.15;100.00;99074.44;4966898;28;20063;-82